MST,Max TemperatureF,Mean TemperatureF,Min TemperatureF,Max Dew PointF,MeanDew PointF,Min DewpointF,Max Humidity, Mean Humidity, Min Humidity, Max Sea Level PressureIn, Mean Sea Level PressureIn, Min Sea Level PressureIn, Max VisibilityMiles, Mean VisibilityMiles, Min VisibilityMiles, Max Wind SpeedMPH, Mean Wind SpeedMPH, Max Gust SpeedMPH,PrecipitationIn, CloudCover, Events, WindDirDegrees
2011-12-1,59,44,28,32,21,14,67,44,18,29.91,29.69,29.58,10,10,10,24,10,37,0.00,3,,141
2011-12-2,39,36,30,36,30,19,100,85,48,29.97,29.87,29.78,10,8,1,21,10,26,0.04,8,Rain-Snow,103
2011-12-3,39,34,28,26,24,22,85,73,51,30.06,29.94,29.82,10,10,9,14,7,,0.00,7,Snow,231
2011-12-4,33,30,26,27,24,21,93,84,66,30.09,30.03,29.97,10,8,2,16,4,20,0.01,7,Snow,298
2011-12-5,28,22,15,25,19,12,100,81,61,30.29,30.10,30.00,10,8,1,14,4,,0.01,7,Snow,304
2011-12-6,30,20,10,14,10,7,92,72,38,30.45,30.36,30.21,10,10,6,10,2,,0.00,2,,270
2011-12-7,37,23,9,16,12,6,88,69,37,30.45,30.33,30.19,10,10,5,10,1,,0.00,0,,320
2011-12-8,41,25,9,20,13,4,84,69,36,30.30,30.23,30.12,10,10,5,9,1,,0.00,0,,302
2011-12-9,41,26,12,20,14,8,88,71,40,30.44,30.34,30.22,10,10,8,7,2,,0.00,0,,276
2011-12-10,43,26,9,21,13,6,88,69,37,30.45,30.31,30.20,10,10,7,10,2,,0.00,0,,284
2011-12-11,52,32,12,26,19,7,92,66,32,30.18,30.05,29.92,10,10,5,9,1,,0.00,0,,230
2011-12-12,48,38,28,36,28,23,88,75,61,29.95,29.89,29.79,10,10,9,13,4,18,0.00,4,Rain,145
2011-12-13,44,32,21,34,31,19,100,91,61,29.96,29.90,29.86,10,7,1,21,5,21,0.10,6,Rain-Snow,164
2011-12-14,39,34,26,32,28,24,96,83,67,30.19,30.09,29.94,10,10,7,12,4,45,0.00,7,,261
2011-12-15,42,28,15,25,19,12,100,83,45,30.25,30.18,30.09,10,7,0,8,2,,0.00,1,Fog,40
2011-12-16,51,35,19,28,24,15,89,68,41,30.26,30.20,30.11,10,10,9,21,8,25,0.00,0,,93
2011-12-17,45,33,21,29,25,19,93,80,53,30.40,30.30,30.22,10,9,4,6,1,,0.00,1,,271
2011-12-18,46,34,23,36,31,22,100,86,58,30.18,30.00,29.84,10,8,2,15,5,,0.01,5,Rain-Snow,268
2011-12-19,41,37,33,36,33,30,100,88,76,29.98,29.84,29.75,10,9,2,20,12,25,0.03,8,Rain-Snow,257
2011-12-20,44,37,30,31,29,27,96,80,55,30.01,29.95,29.87,10,10,7,8,2,,0.00,5,,263
2011-12-21,43,36,28,31,29,28,100,81,58,29.96,29.91,29.81,10,8,4,17,3,22,0.00,7,,248
2011-12-22,37,28,19,30,23,19,100,88,73,30.16,30.07,29.89,10,4,0,18,10,25,0.06,8,Fog-Snow,281
2011-12-23,28,22,12,23,18,8,93,84,69,30.47,30.29,30.09,10,7,1,14,6,,0.01,6,Snow,58
2011-12-24,32,18,3,19,11,1,91,77,52,30.61,30.53,30.40,10,10,9,8,3,,0.00,0,,160
2011-12-25,35,21,7,22,13,3,88,75,54,30.61,30.49,30.36,10,9,2,8,2,,0.00,0,,193
2011-12-26,46,31,16,23,15,9,81,60,25,30.39,30.32,30.25,10,10,10,7,4,,0.00,0,,171
2011-12-27,50,32,15,23,17,10,84,62,26,30.38,30.29,30.17,10,10,7,7,2,,0.00,0,,176
2011-12-28,51,34,17,24,19,13,85,62,28,30.45,30.34,30.25,10,10,9,9,3,,0.00,0,,175
2011-12-29,57,39,21,27,19,11,85,56,17,30.29,30.18,30.07,10,10,9,7,2,,0.00,0,,188
2011-12-30,63,44,24,31,27,22,93,63,28,30.23,30.12,30.04,10,10,6,7,3,,0.00,0,,146
2011-12-31,60,44,28,32,23,15,86,54,17,30.34,30.17,30.01,10,10,10,16,5,,0.00,0,,242